Welsh, Louisiana
Current Conditions -  °F | °C
As of 8:15 AM on Monday 20 Oct 2014 (Local Time) from K3R7 Reporting Station
Clear Clear  
Wind Chill: 58°   Ceiling: Unl
Heat Index: 58°   Visibility: 10mi
Dew Point: 55°   Wind: 5mph
Humidity: 88%   Direction: 70°ENE
Pressure: 30.05"   Gusts: NA
Location:  30.24°N, 92.82°W
Report Text: K3R7 201315Z AUTO 07004KT 10SM CLR 15/13 A3005 RMK AO2 T01470127
Loading
Personal Weather Stations






























Interactive Weather Map
Tropical Storm Tracking
New forecast layout! Learn more

10-Day Weather Forecast

Advertisements
Track Severe Weather on mobile